logo
Search for airport 
image banner adimage banner adimage banner ad
image banner ad

OIBV - Lavan Island / Lavan

Located in Lavan, Iran, Islamic Republic of

ICAO - OIBV, IATA - LVP

Data provided by Airmate  

General information

Coordinates: N26°48'37" E53°21'22"
Elevation is 45 feet MSL.
 
View others Airports in Hormozgan Province

Operational data

Special qualification required
Current time UTC:
Current local time:
Weather
METAR: OIBV 130600Z 31012KT CAVOK 25/15 Q1007
View NOTAMs / SUP AIP / TFR affecting this airport [VIEW]
Communications frequencies: [VIEW]

Runways:

RWY identifierQFULength (ft)Width (ft)SurfaceLDA (ft)
11111°8835148ASP
29291°8835148ASP

Airport contact information

Address: Lavan Iran, Islamic Republic of

Satellite view of OIBV